Time;durP1;ratioP1;P1;durP2;ratioP2;P2;SDS_P1;SDS_P2;PMS_P1;PMS_P2;Temp;Humidity;BMP_temperature;BMP_pressure;BME280_temperature;BME280_humidity;BME280_pressure;Samples;Min_cycle;Max_cycle;Signal;HPM_P1;HPM_P2
2022/02/13 00:01:22;;;;;;;32.70;14.95;;;;;;;-2.47;88.46;101297.16;1689329;83;21008;-71
2022/02/13 00:03:51;;;;;;;35.60;14.15;;;;;;;-2.53;88.42;101299.28;1715415;83;21463;-73
2022/02/13 00:06:19;;;;;;;36.20;14.63;;;;;;;-2.59;88.37;101300.02;1715428;83;21084;-71
2022/02/13 00:08:53;;;;;;;31.73;12.95;;;;;;;-2.59;88.65;101308.95;1715459;83;21000;-72
2022/02/13 00:11:22;;;;;;;37.95;13.90;;;;;;;-2.60;88.60;101310.00;1715496;83;21044;-73
2022/02/13 00:13:53;;;;;;;39.53;15.05;;;;;;;-2.63;88.70;101317.63;1711338;83;20949;-71
2022/02/13 00:16:21;;;;;;;37.53;13.72;;;;;;;-2.64;88.85;101314.08;1715661;83;21548;-72
2022/02/13 00:18:49;;;;;;;31.33;13.13;;;;;;;-2.64;88.92;101318.13;1676459;85;21180;-73
2022/02/13 00:21:15;;;;;;;38.40;15.03;;;;;;;-2.65;88.94;101304.32;1715585;83;20972;-72
2022/02/13 00:23:41;;;;;;;44.15;17.62;;;;;;;-2.65;88.89;101312.92;1715685;83;21071;-73
2022/02/13 00:26:12;;;;;;;43.48;16.77;;;;;;;-2.69;88.84;101311.11;1715742;83;21020;-73
2022/02/13 00:28:41;;;;;;;42.33;16.15;;;;;;;-2.76;88.87;101299.41;1715640;83;21545;-73
2022/02/13 00:31:09;;;;;;;38.80;15.18;;;;;;;-2.84;89.05;101301.17;1715592;83;21997;-70
2022/02/13 00:33:36;;;;;;;37.95;14.90;;;;;;;-2.87;89.19;101300.20;1715574;83;21025;-73
2022/02/13 00:36:03;;;;;;;42.95;16.23;;;;;;;-2.87;89.28;101302.05;1715650;83;20996;-72
2022/02/13 00:38:29;;;;;;;36.35;13.22;;;;;;;-2.87;89.42;101308.80;1715753;83;20988;-73
2022/02/13 00:40:56;;;;;;;25.25;9.40;;;;;;;-2.88;89.42;101315.23;1715864;83;21446;-73
2022/02/13 00:43:22;;;;;;;17.52;7.08;;;;;;;-2.86;89.71;101311.81;1715746;83;21353;-72
2022/02/13 00:45:52;;;;;;;14.18;6.58;;;;;;;-2.77;90.58;101315.26;1715597;83;20984;-71
2022/02/13 00:48:19;;;;;;;14.47;6.08;;;;;;;-2.65;91.12;101313.77;1715636;83;21320;-71
2022/02/13 00:50:48;;;;;;;15.08;7.12;;;;;;;-2.53;91.29;101300.63;1676735;85;20924;-73
2022/02/13 00:53:16;;;;;;;17.05;7.83;;;;;;;-2.47;90.94;101310.66;1715596;83;20925;-73
2022/02/13 00:55:47;;;;;;;14.53;6.50;;;;;;;-2.52;90.33;101303.64;1715473;83;21165;-73
2022/02/13 00:58:14;;;;;;;14.80;6.53;;;;;;;-2.55;90.22;101302.67;1715637;83;20857;-73
2022/02/13 01:00:43;;;;;;;16.37;6.65;;;;;;;-2.56;90.18;101303.71;1715861;83;21060;-72
2022/02/13 01:03:11;;;;;;;14.35;6.67;;;;;;;-2.58;90.10;101303.05;1715533;83;21010;-72
2022/02/13 01:05:38;;;;;;;12.78;6.97;;;;;;;-2.63;89.94;101293.34;1715564;83;21312;-71
2022/02/13 01:08:07;;;;;;;12.85;5.95;;;;;;;-2.70;89.64;101292.75;1715470;83;22017;-72
2022/02/13 01:10:36;;;;;;;17.45;8.10;;;;;;;-2.79;89.49;101285.76;1715374;83;20969;-72
2022/02/13 01:13:04;;;;;;;24.27;10.25;;;;;;;-2.90;89.47;101284.89;1689197;83;20957;-72
2022/02/13 01:15:32;;;;;;;25.92;12.73;;;;;;;-2.96;89.68;101290.01;1715526;83;21489;-72
2022/02/13 01:18:00;;;;;;;24.32;12.00;;;;;;;-2.92;90.25;101293.67;1715429;83;21517;-73
2022/02/13 01:20:27;;;;;;;22.93;11.15;;;;;;;-2.86;90.70;101290.22;1715706;83;21126;-73
2022/02/13 01:22:54;;;;;;;22.25;11.18;;;;;;;-2.85;90.59;101283.82;1715484;83;21011;-73
2022/02/13 01:25:21;;;;;;;24.23;12.15;;;;;;;-2.83;90.72;101289.84;1715364;83;21005;-73
2022/02/13 01:27:53;;;;;;;25.97;11.18;;;;;;;-2.79;90.98;101293.01;1715477;83;21076;-73
2022/02/13 01:30:21;;;;;;;25.37;12.68;;;;;;;-2.70;91.57;101290.55;1676951;85;20984;-73
2022/02/13 01:32:48;;;;;;;34.95;15.10;;;;;;;-2.57;91.62;101292.57;1715463;83;21154;-73
2022/02/13 01:35:17;;;;;;;29.72;13.70;;;;;;;-2.53;91.38;101289.83;1715687;83;20877;-72
2022/02/13 01:37:46;;;;;;;32.80;14.18;;;;;;;-2.52;91.02;101287.44;1715446;83;20957;-73
2022/02/13 01:40:13;;;;;;;28.35;13.93;;;;;;;-2.55;90.44;101294.58;1715761;83;20989;-73
2022/02/13 01:42:39;;;;;;;33.58;14.73;;;;;;;-2.71;89.66;101289.70;1715530;83;21509;-72
2022/02/13 01:45:09;;;;;;;30.12;13.75;;;;;;;-2.82;89.67;101284.79;1715458;83;21309;-73
2022/02/13 01:47:37;;;;;;;31.17;13.25;;;;;;;-2.87;89.87;101290.75;1715731;83;20941;-70
2022/02/13 01:50:08;;;;;;;27.90;12.58;;;;;;;-2.86;90.29;101291.07;1715445;83;20922;-72
2022/02/13 01:52:41;;;;;;;28.95;13.13;;;;;;;-2.83;90.39;101293.89;1715832;83;20957;-73
2022/02/13 01:55:10;;;;;;;24.32;11.68;;;;;;;-2.88;89.96;101290.95;1715222;83;20921;-73
2022/02/13 01:57:40;;;;;;;33.70;12.23;;;;;;;-2.98;89.71;101292.55;1689053;83;21149;-72
2022/02/13 02:00:09;;;;;;;27.87;12.43;;;;;;;-3.04;89.80;101299.55;1715330;83;20925;-73
2022/02/13 02:02:41;;;;;;;;;;;;;;;-3.08;89.71;101298.23;1718131;83;21008;-72
2022/02/13 02:05:09;;;;;;;20.45;10.25;;;;;;;-3.17;89.63;101294.77;1715557;83;20336;-72
2022/02/13 02:07:40;;;;;;;24.07;11.30;;;;;;;-3.27;89.80;101297.75;1715402;83;21504;-72
2022/02/13 02:10:07;;;;;;;27.48;11.70;;;;;;;-3.27;90.31;101297.75;1716942;83;21820;-73
2022/02/13 02:12:39;;;;;;;38.55;14.63;;;;;;;-3.23;90.70;101297.72;1718513;83;20909;-73
2022/02/13 02:15:08;;;;;;;41.23;15.53;;;;;;;-3.23;90.65;101292.83;1718784;83;20980;-73
2022/02/13 02:17:38;;;;;;;36.30;13.98;;;;;;;-3.21;90.98;101288.91;1718620;83;20973;-72
2022/02/13 02:20:09;;;;;;;36.25;15.10;;;;;;;-3.18;91.14;101290.41;1718810;83;21411;-72
2022/02/13 02:22:39;;;;;;;28.20;12.88;;;;;;;-3.19;90.96;101286.87;1718492;83;21394;-72
2022/02/13 02:25:11;;;;;;;23.38;10.80;;;;;;;-3.28;90.63;101282.59;1718746;83;20969;-73
2022/02/13 02:27:38;;;;;;;20.57;9.95;;;;;;;-3.42;90.62;101284.24;1718584;83;21031;-73
2022/02/13 02:30:10;;;;;;;17.95;8.98;;;;;;;-3.49;90.85;101288.69;1718835;83;20929;-73
2022/02/13 02:32:36;;;;;;;16.23;7.97;;;;;;;-3.48;91.33;101285.80;1718530;83;20889;-73
2022/02/13 02:35:06;;;;;;;18.30;8.70;;;;;;;-3.40;91.96;101282.70;1718580;83;21155;-72
2022/02/13 02:37:35;;;;;;;19.87;8.58;;;;;;;-3.34;92.18;101286.86;1718813;83;20945;-73
2022/02/13 02:40:01;;;;;;;23.00;8.68;;;;;;;-3.22;92.69;101285.05;1718864;83;20980;-73
2022/02/13 02:42:28;;;;;;;25.65;11.05;;;;;;;-3.11;92.80;101278.38;1693824;83;20973;-73
2022/02/13 02:44:56;;;;;;;38.20;15.13;;;;;;;-3.05;92.84;101277.62;1719002;83;20961;-73
2022/02/13 02:47:22;;;;;;;31.75;12.78;;;;;;;-2.99;92.56;101281.44;1718544;83;21120;-73
2022/02/13 02:49:51;;;;;;;42.15;18.60;;;;;;;-3.02;91.97;101276.42;1718629;83;21031;-74
2022/02/13 02:52:19;;;;;;;32.53;14.18;;;;;;;-3.05;91.92;101284.36;1718875;83;21429;-74
2022/02/13 02:54:46;;;;;;;31.82;13.75;;;;;;;-3.05;91.90;101288.41;1718866;83;21070;-72
2022/02/13 02:57:14;;;;;;;28.98;12.47;;;;;;;-3.04;91.94;101282.02;1718657;83;20985;-73
2022/02/13 02:59:41;;;;;;;28.35;8.68;;;;;;;-3.02;91.92;101288.56;1718506;83;21157;-73
2022/02/13 03:02:08;;;;;;;16.87;7.87;;;;;;;-3.00;92.23;101285.99;1718688;83;20945;-73
2022/02/13 03:04:36;;;;;;;18.07;9.58;;;;;;;-2.95;92.24;101291.67;1718584;83;21005;-73
2022/02/13 03:07:03;;;;;;;30.48;10.13;;;;;;;-2.96;92.03;101283.77;1718598;83;21485;-72
2022/02/13 03:09:33;;;;;;;32.23;12.40;;;;;;;-2.99;91.77;101282.80;1732559;82;20941;-72
2022/02/13 03:12:02;;;;;;;37.70;12.53;;;;;;;-3.01;91.86;101279.44;1722995;83;21132;-72
2022/02/13 03:14:34;;;;;;;33.40;11.33;;;;;;;-3.02;92.10;101281.29;1696627;83;20992;-73
2022/02/13 03:17:06;;;;;;;39.67;14.73;;;;;;;-3.02;92.12;101283.17;1696491;83;21004;-73
2022/02/13 03:19:34;;;;;;;32.28;14.23;;;;;;;-3.01;92.35;101288.38;1722950;82;21505;-73
2022/02/13 03:22:03;;;;;;;39.83;16.02;;;;;;;-3.00;92.35;101285.17;1722834;83;21007;-72
2022/02/13 03:24:31;;;;;;;41.77;16.52;;;;;;;-3.00;92.49;101283.30;1722907;83;21163;-72
2022/02/13 03:27:03;;;;;;;34.40;13.22;;;;;;;-2.98;92.37;101285.80;1697720;83;21528;-71
2022/02/13 03:29:29;;;;;;;28.27;11.33;;;;;;;-3.00;92.38;101290.05;1676471;84;21015;-73
2022/02/13 03:31:56;;;;;;;24.65;10.28;;;;;;;-2.98;92.30;101296.09;1715685;83;20992;-73
2022/02/13 03:34:23;;;;;;;18.48;8.10;;;;;;;-3.01;91.97;101292.42;1715301;83;20989;-74
2022/02/13 03:36:51;;;;;;;18.42;9.30;;;;;;;-3.06;91.79;101296.19;1715280;83;21555;-72
2022/02/13 03:39:21;;;;;;;26.02;9.53;;;;;;;-3.08;91.87;101287.44;1715558;83;20925;-74
2022/02/13 03:41:48;;;;;;;26.62;9.60;;;;;;;-3.10;91.79;101281.38;1715163;83;20882;-72
2022/02/13 03:44:17;;;;;;;20.52;8.33;;;;;;;-3.12;91.72;101276.70;1715312;83;20994;-74
2022/02/13 03:46:46;;;;;;;14.30;7.42;;;;;;;-3.16;91.63;101275.39;1715588;83;21022;-74
2022/02/13 03:49:15;;;;;;;18.30;8.30;;;;;;;-3.18;91.72;101273.73;1715486;83;20977;-73
2022/02/13 03:51:47;;;;;;;19.40;8.25;;;;;;;-3.16;91.96;101276.74;1715774;83;21005;-73
2022/02/13 03:54:16;;;;;;;20.12;8.85;;;;;;;-3.10;92.27;101270.59;1715547;83;20934;-73
2022/02/13 03:56:44;;;;;;;27.85;8.80;;;;;;;-3.03;92.26;101267.48;1689260;83;21025;-74
2022/02/13 03:59:11;;;;;;;27.98;12.80;;;;;;;-2.99;92.09;101265.25;1715686;83;21462;-74
2022/02/13 04:01:40;;;;;;;27.90;12.60;;;;;;;-3.00;91.96;101259.02;1715834;83;21503;-72
2022/02/13 04:04:09;;;;;;;35.73;13.98;;;;;;;-3.00;91.62;101256.85;1676294;85;20927;-70
2022/02/13 04:06:37;;;;;;;40.50;16.87;;;;;;;-3.07;91.08;101248.13;1715907;83;21512;-73
2022/02/13 04:09:06;;;;;;;34.33;13.43;;;;;;;-3.13;91.26;101239.45;1715584;83;20965;-73
2022/02/13 04:11:34;;;;;;;27.77;13.88;;;;;;;-3.13;91.42;101234.55;1715418;83;20921;-73
2022/02/13 04:14:03;;;;;;;27.52;13.13;;;;;;;-3.14;91.38;101242.34;1715574;83;21194;-73
2022/02/13 04:16:32;;;;;;;29.98;13.48;;;;;;;-3.16;91.31;101245.22;1715599;83;21096;-73
2022/02/13 04:18:59;;;;;;;30.25;14.63;;;;;;;-3.18;91.17;101240.52;1676381;85;21043;-73
2022/02/13 04:21:30;;;;;;;44.00;18.35;;;;;;;-3.24;90.89;101234.53;1715520;83;21126;-74
2022/02/13 04:23:58;;;;;;;54.50;23.62;;;;;;;-3.28;90.82;101244.00;1715902;83;21405;-73
2022/02/13 04:26:25;;;;;;;51.48;21.80;;;;;;;-3.24;91.46;101243.97;1688886;83;21138;-72
2022/02/13 04:28:58;;;;;;;50.63;20.27;;;;;;;-3.23;91.10;101232.99;1715661;83;20996;-73
2022/02/13 04:31:28;;;;;;;46.83;19.23;;;;;;;-3.32;90.58;101238.98;1715721;83;20953;-73
2022/02/13 04:33:59;;;;;;;57.45;23.27;;;;;;;-3.37;90.59;101244.09;1676196;84;20941;-72
2022/02/13 04:36:27;;;;;;;46.13;20.05;;;;;;;-3.39;90.81;101240.73;1715747;83;21012;-71
2022/02/13 04:38:53;;;;;;;44.55;20.10;;;;;;;-3.35;90.99;101231.77;1689648;83;21885;-72
2022/02/13 04:41:23;;;;;;;51.83;20.82;;;;;;;-3.44;90.49;101235.91;1715581;83;21056;-73
2022/02/13 04:43:49;;;;;;;35.35;16.87;;;;;;;-3.50;90.35;101238.50;1715601;83;21131;-72
2022/02/13 04:46:16;;;;;;;30.68;13.35;;;;;;;-3.50;90.89;101235.80;1715602;83;20893;-73
2022/02/13 04:48:47;;;;;;;27.60;12.13;;;;;;;-3.40;91.46;101246.31;1715650;83;20953;-73
2022/02/13 04:51:21;;;;;;;24.72;11.30;;;;;;;-3.33;91.64;101246.75;1715433;83;21437;-73
2022/02/13 04:53:49;;;;;;;20.57;10.38;;;;;;;-3.24;91.60;101248.02;1714404;83;21076;-73
2022/02/13 04:56:20;;;;;;;22.52;10.28;;;;;;;-3.20;91.54;101240.70;1715789;83;21401;-72
2022/02/13 04:58:51;;;;;;;23.98;10.72;;;;;;;-3.15;91.46;101239.30;1715355;83;20901;-73
2022/02/13 05:01:22;;;;;;;23.62;10.70;;;;;;;-3.11;91.42;101236.06;1676590;85;21012;-71
2022/02/13 05:03:48;;;;;;;26.20;10.48;;;;;;;-3.09;91.29;101242.61;1715636;83;21222;-74
2022/02/13 05:06:14;;;;;;;21.95;9.98;;;;;;;-3.09;91.20;101243.97;1715905;83;20885;-74
2022/02/13 05:08:40;;;;;;;15.65;8.45;;;;;;;-3.09;91.09;101250.70;1643970;83;21465;-74
2022/02/13 05:11:07;;;;;;;14.73;8.28;;;;;;;-3.11;91.09;101241.95;1716823;83;20973;-74
2022/02/13 05:13:35;;;;;;;19.02;8.03;;;;;;;-3.11;90.99;101250.05;1718585;83;20988;-74
2022/02/13 05:16:06;;;;;;;25.30;8.98;;;;;;;-3.18;90.69;101248.61;1733917;82;21386;-73
2022/02/13 05:18:37;;;;;;;24.90;8.60;;;;;;;-3.20;90.96;101247.95;1733724;82;20888;-74
2022/02/13 05:21:06;;;;;;;20.85;8.33;;;;;;;-3.19;90.99;101255.03;1645552;86;21067;-72
2022/02/13 05:23:32;;;;;;;14.30;7.53;;;;;;;-3.24;90.59;101250.71;1718662;83;21013;-73
2022/02/13 05:26:02;;;;;;;19.15;8.35;;;;;;;-3.34;90.21;101255.00;1718055;83;21540;-73
2022/02/13 05:28:29;;;;;;;18.52;7.70;;;;;;;-3.42;90.26;101258.63;1718553;83;21075;-71
2022/02/13 05:30:58;;;;;;;17.67;8.28;;;;;;;-3.48;90.13;101247.25;1718433;83;21139;-72
2022/02/13 05:33:24;;;;;;;17.50;7.97;;;;;;;-3.50;90.40;101259.56;1718734;83;21025;-72
2022/02/13 05:35:52;;;;;;;17.77;8.70;;;;;;;-3.47;91.00;101257.84;1718608;83;21501;-72
2022/02/13 05:38:18;;;;;;;22.37;8.65;;;;;;;-3.40;91.34;101263.34;1718546;83;21056;-73
2022/02/13 05:40:45;;;;;;;15.40;7.05;;;;;;;-3.31;91.52;101254.66;1718933;83;22096;-74
2022/02/13 05:43:11;;;;;;;16.25;7.80;;;;;;;-3.25;91.52;101254.41;1718639;83;20920;-73
2022/02/13 05:45:37;;;;;;;17.75;7.65;;;;;;;-3.24;91.00;101265.01;1718649;83;20972;-73
2022/02/13 05:48:07;;;;;;;18.12;7.70;;;;;;;-3.21;91.22;101265.17;1718471;83;20845;-73
2022/02/13 05:50:37;;;;;;;19.62;8.35;;;;;;;-3.17;91.28;101262.41;1718224;83;20945;-73
2022/02/13 05:53:06;;;;;;;15.88;7.80;;;;;;;-3.10;91.52;101254.41;1718729;83;21510;-73
2022/02/13 05:55:39;;;;;;;16.20;8.33;;;;;;;-3.05;91.37;101261.44;1715387;83;20948;-74
2022/02/13 05:58:10;;;;;;;16.32;7.55;;;;;;;-3.02;91.19;101252.96;1718692;83;20913;-73
2022/02/13 06:00:38;;;;;;;18.73;8.40;;;;;;;-3.07;90.64;101260.27;1718432;83;20913;-71
2022/02/13 06:03:06;;;;;;;18.67;8.45;;;;;;;-3.07;90.93;101259.45;1718596;83;21445;-72
2022/02/13 06:05:35;;;;;;;18.17;8.25;;;;;;;-3.06;90.77;101260.62;1718634;83;21466;-73
2022/02/13 06:08:03;;;;;;;17.92;8.40;;;;;;;-3.04;90.75;101260.93;1718578;83;20992;-73
2022/02/13 06:10:30;;;;;;;17.77;8.93;;;;;;;-3.08;90.54;101267.20;1718416;83;21012;-71
2022/02/13 06:13:03;;;;;;;19.23;9.90;;;;;;;-3.03;91.34;101266.14;1718644;83;20985;-73
2022/02/13 06:15:31;;;;;;;19.05;9.13;;;;;;;-2.93;91.45;101265.84;1718578;83;21062;-73
2022/02/13 06:18:01;;;;;;;18.15;8.78;;;;;;;-2.81;91.85;101267.06;1718544;83;21992;-73
2022/02/13 06:20:30;;;;;;;20.85;8.80;;;;;;;-2.67;92.02;101259.63;1718548;83;21007;-72
2022/02/13 06:22:59;;;;;;;18.50;9.38;;;;;;;-2.57;91.89;101258.32;1718659;83;21003;-72
2022/02/13 06:25:33;;;;;;;20.25;10.90;;;;;;;-2.44;91.92;101263.56;1718559;83;20846;-73
2022/02/13 06:28:03;;;;;;;18.77;9.23;;;;;;;-2.35;91.57;101259.70;1718552;83;21008;-73
2022/02/13 06:30:35;;;;;;;23.98;10.85;;;;;;;-2.30;91.21;101258.30;1718505;83;21932;-73
2022/02/13 06:33:06;;;;;;;20.72;9.98;;;;;;;-2.28;90.87;101250.83;1734266;82;20928;-73
2022/02/13 06:35:34;;;;;;;22.00;9.60;;;;;;;-2.28;90.87;101248.97;1734166;82;20896;-74
2022/02/13 06:38:04;;;;;;;21.45;9.98;;;;;;;-2.26;90.86;101249.63;1670582;85;21148;-74
2022/02/13 06:40:35;;;;;;;21.93;10.70;;;;;;;-2.24;90.88;101240.81;1718454;83;21048;-71
2022/02/13 06:43:02;;;;;;;18.57;9.80;;;;;;;-2.23;90.94;101245.18;1718963;83;21490;-73
2022/02/13 06:45:31;;;;;;;23.67;10.45;;;;;;;-2.16;91.01;101248.45;1718435;83;37456;-74
2022/02/13 06:48:03;;;;;;;21.42;10.93;;;;;;;-2.11;91.05;101243.31;1718642;83;20889;-74
2022/02/13 06:50:35;;;;;;;29.92;12.55;;;;;;;-2.06;91.12;101249.51;1715758;83;20905;-73
2022/02/13 06:53:02;;;;;;;26.85;11.78;;;;;;;-2.00;91.30;101245.52;1734063;82;20920;-73
2022/02/13 06:55:29;;;;;;;26.65;11.18;;;;;;;-1.90;91.53;101245.69;1734196;82;21145;-73
2022/02/13 06:58:00;;;;;;;28.83;13.05;;;;;;;-1.81;91.39;101247.24;1733808;82;20929;-73
2022/02/13 07:00:29;;;;;;;23.57;12.28;;;;;;;-1.75;91.30;101242.40;1734078;82;21531;-73
2022/02/13 07:03:00;;;;;;;24.18;12.53;;;;;;;-1.66;91.09;101249.01;1734136;82;20990;-73
2022/02/13 07:05:27;;;;;;;21.55;11.33;;;;;;;-1.61;90.92;101252.81;1670725;85;21017;-72
2022/02/13 07:07:59;;;;;;;20.00;11.05;;;;;;;-1.55;90.67;101249.00;1718694;83;21090;-71
2022/02/13 07:10:25;;;;;;;20.60;11.43;;;;;;;-1.49;90.50;101248.20;1718667;83;20953;-73
2022/02/13 07:12:54;;;;;;;26.12;12.25;;;;;;;-1.44;90.32;101248.45;1715790;83;20988;-74
2022/02/13 07:15:23;;;;;;;24.23;11.43;;;;;;;-1.41;90.40;101250.75;1676013;85;21044;-72
2022/02/13 07:17:52;;;;;;;24.90;12.10;;;;;;;-1.35;90.39;101248.60;1714202;83;21064;-71
2022/02/13 07:20:20;;;;;;;31.05;12.45;;;;;;;-1.29;90.50;101249.69;1715185;83;21271;-72
2022/02/13 07:22:48;;;;;;;21.77;12.63;;;;;;;-1.20;90.53;101250.88;1715470;83;20901;-72
2022/02/13 07:25:19;;;;;;;24.52;12.00;;;;;;;-1.15;90.03;101253.32;1715519;83;21440;-72
2022/02/13 07:27:47;;;;;;;20.45;10.03;;;;;;;-1.10;90.00;101251.37;1715477;83;21020;-73
2022/02/13 07:30:13;;;;;;;24.32;10.53;;;;;;;-1.06;89.60;101257.22;1689355;83;21040;-73
2022/02/13 07:32:50;;;;;;;22.00;11.55;;;;;;;-1.02;89.69;101252.55;1715414;83;21465;-72
2022/02/13 07:35:20;;;;;;;17.67;8.68;;;;;;;-0.95;89.59;101243.63;1676157;85;20889;-73
2022/02/13 07:37:50;;;;;;;21.90;10.55;;;;;;;-0.89;89.50;101248.25;1715457;83;20964;-73
2022/02/13 07:40:19;;;;;;;22.75;9.85;;;;;;;-0.83;89.23;101244.73;1715218;83;21414;-73
2022/02/13 07:42:45;;;;;;;22.07;11.48;;;;;;;-0.78;89.27;101240.06;1715277;83;20993;-69
2022/02/13 07:45:12;;;;;;;22.37;11.57;;;;;;;-0.71;89.50;101238.22;1715326;83;22020;-70
2022/02/13 07:47:39;;;;;;;20.10;8.90;;;;;;;-0.61;89.52;101240.55;1715552;83;21544;-74
2022/02/13 07:50:07;;;;;;;17.40;8.30;;;;;;;-0.52;88.93;101241.20;1715379;83;20992;-74
2022/02/13 07:52:37;;;;;;;22.90;10.18;;;;;;;-0.48;88.29;101237.06;1715634;83;20941;-74
2022/02/13 07:55:07;;;;;;;16.45;8.18;;;;;;;-0.40;88.04;101238.23;1715382;83;20878;-74
2022/02/13 07:57:41;;;;;;;16.50;8.48;;;;;;;-0.34;87.33;101237.91;1689684;83;21036;-73
2022/02/13 08:00:12;;;;;;;17.35;7.37;;;;;;;-0.28;87.27;101232.20;1715338;83;20882;-72
2022/02/13 08:02:40;;;;;;;17.57;7.83;;;;;;;-0.21;86.95;101233.06;1715389;83;21123;-73
2022/02/13 08:05:07;;;;;;;19.20;7.72;;;;;;;-0.14;86.21;101224.39;1715607;83;21446;-74
2022/02/13 08:07:46;;;;;;;19.12;9.50;;;;;;;-0.07;85.42;101223.59;1715670;83;21065;-73
2022/02/13 08:10:17;;;;;;;;;;;;;;;-0.04;84.44;101218.59;1718029;83;21554;-75
2022/02/13 08:12:46;;;;;;;15.32;6.42;;;;;;;0.01;84.18;101222.03;1717411;83;20105;-74
2022/02/13 08:15:19;;;;;;;11.10;5.58;;;;;;;0.07;83.61;101219.84;1718722;83;20977;-72
2022/02/13 08:17:46;;;;;;;15.03;6.80;;;;;;;0.14;83.01;101229.33;1718568;83;20941;-74
2022/02/13 08:20:16;;;;;;;12.80;5.35;;;;;;;0.19;82.52;101220.05;1708800;82;21003;-74
2022/02/13 08:22:42;;;;;;;10.32;5.40;;;;;;;0.23;81.71;101219.95;1733902;82;21457;-74
2022/02/13 08:25:11;;;;;;;10.90;5.97;;;;;;;0.30;81.20;101221.31;1733934;82;21029;-76
2022/02/13 08:27:40;;;;;;;12.25;5.12;;;;;;;0.36;80.73;101215.03;1645758;86;21671;-72
2022/02/13 08:30:11;;;;;;;8.95;4.95;;;;;;;0.42;80.27;101217.95;1718904;83;20950;-73
2022/02/13 08:32:39;;;;;;;11.50;5.30;;;;;;;0.47;79.15;101216.80;1717845;83;21284;-74
2022/02/13 08:35:10;;;;;;;11.18;5.35;;;;;;;0.51;79.04;101207.72;1718566;83;22062;-74
2022/02/13 08:37:38;;;;;;;10.48;4.67;;;;;;;0.56;78.70;101210.09;1718000;83;21011;-74
2022/02/13 08:40:06;;;;;;;9.13;3.75;;;;;;;0.66;78.50;101206.13;1718767;83;21059;-74
2022/02/13 08:42:37;;;;;;;10.58;3.70;;;;;;;0.72;78.32;101211.54;1709068;82;22325;-74
2022/02/13 08:45:04;;;;;;;7.05;3.33;;;;;;;0.81;77.57;101214.02;1734179;82;21044;-75
2022/02/13 08:47:33;;;;;;;7.60;3.77;;;;;;;0.87;77.16;101209.09;1698956;84;20965;-74
2022/02/13 08:49:59;;;;;;;9.55;4.65;;;;;;;0.95;76.31;101210.75;1719017;83;21023;-75
2022/02/13 08:52:29;;;;;;;13.55;3.90;;;;;;;1.02;75.72;101206.66;1719034;83;21410;-74
2022/02/13 08:55:00;;;;;;;6.30;3.62;;;;;;;1.08;75.45;101209.86;1718691;83;20893;-73
2022/02/13 08:57:31;;;;;;;10.00;5.00;;;;;;;1.12;74.22;101209.75;1718168;83;20988;-76
2022/02/13 08:59:58;;;;;;;10.80;4.17;;;;;;;1.15;73.91;101203.88;1718903;83;21834;-75
2022/02/13 09:02:27;;;;;;;8.55;4.25;;;;;;;1.20;74.38;101205.43;1718533;83;20993;-75
2022/02/13 09:04:53;;;;;;;8.45;4.08;;;;;;;1.29;73.94;101203.82;1718526;83;21092;-75
2022/02/13 09:07:25;;;;;;;10.75;4.75;;;;;;;1.34;72.51;101198.58;1718564;83;20893;-75
2022/02/13 09:09:54;;;;;;;8.50;5.00;;;;;;;1.38;72.75;101204.41;1671709;83;20988;-72
2022/02/13 09:12:25;;;;;;;10.45;4.47;;;;;;;1.42;72.60;101202.91;1716878;83;20982;-75
2022/02/13 09:14:54;;;;;;;8.10;4.15;;;;;;;1.48;71.54;101195.27;1718535;83;20980;-75
2022/02/13 09:17:20;;;;;;;10.40;4.75;;;;;;;1.52;71.96;101191.05;1718489;83;20936;-75
2022/02/13 09:19:47;;;;;;;8.50;4.00;;;;;;;1.59;71.42;101200.52;1718559;83;20988;-74
2022/02/13 09:22:14;;;;;;;9.23;4.33;;;;;;;1.64;71.45;101197.98;1718848;83;21156;-75
2022/02/13 09:24:50;;;;;;;8.78;4.17;;;;;;;1.71;70.78;101193.85;1718274;83;20971;-75
2022/02/13 09:27:19;;;;;;;9.88;4.60;;;;;;;1.78;70.62;101189.22;1718741;83;20960;-73
2022/02/13 09:29:51;;;;;;;11.18;4.08;;;;;;;1.86;71.07;101188.10;1718637;83;20928;-75
2022/02/13 09:32:17;;;;;;;6.83;3.92;;;;;;;1.93;70.52;101188.05;1718941;83;20889;-75
2022/02/13 09:34:46;;;;;;;6.10;3.37;;;;;;;1.96;69.21;101196.31;1718790;83;21045;-76
2022/02/13 09:37:12;;;;;;;9.18;4.37;;;;;;;1.91;68.66;101192.34;1718664;83;21141;-74
2022/02/13 09:39:42;;;;;;;9.58;4.92;;;;;;;1.92;68.99;101182.31;1718468;83;21003;-72
2022/02/13 09:42:10;;;;;;;11.63;5.20;;;;;;;1.97;68.89;101174.84;1718542;83;21013;-74
2022/02/13 09:44:40;;;;;;;10.60;4.65;;;;;;;2.02;68.38;101169.06;1718802;83;21079;-74
2022/02/13 09:47:07;;;;;;;10.18;4.90;;;;;;;2.05;67.67;101169.13;1718544;83;22571;-75
2022/02/13 09:49:36;;;;;;;10.00;4.55;;;;;;;2.03;68.05;101167.18;1719293;83;21620;-75
2022/02/13 09:52:05;;;;;;;10.40;4.35;;;;;;;2.08;69.34;101163.78;1718468;83;21155;-75
2022/02/13 09:54:36;;;;;;;9.28;4.28;;;;;;;2.19;68.47;101164.41;1718416;83;21461;-71
2022/02/13 09:59:58;;;;;;;7.20;4.08;;;;;;;2.33;68.09;101155.60;1698019;83;20988;-76
2022/02/13 10:02:35;;;;;;;6.47;3.60;;;;;;;2.37;67.22;101151.91;1718115;83;22777;-74
2022/02/13 10:05:04;;;;;;;7.30;4.28;;;;;;;2.40;67.23;101156.38;1718610;83;20991;-73
2022/02/13 10:07:35;;;;;;;7.37;3.75;;;;;;;2.44;67.50;101141.77;1718300;83;21537;-75
2022/02/13 10:10:07;;;;;;;8.18;4.25;;;;;;;2.48;67.03;101139.43;1685610;82;21056;-76
2022/02/13 10:12:43;;;;;;;8.80;4.33;;;;;;;2.54;67.72;101143.44;1733810;82;21027;-76
2022/02/13 10:15:29;;;;;;;9.60;4.55;;;;;;;2.64;67.32;101133.41;1698784;84;21097;-73
2022/02/13 10:18:08;;;;;;;10.95;4.70;;;;;;;2.74;67.32;101127.42;1718825;82;20916;-73
2022/02/13 10:20:41;;;;;;;8.95;4.85;;;;;;;2.80;66.65;101124.30;1718732;83;21385;-75
2022/02/13 10:23:14;;;;;;;8.80;3.95;;;;;;;2.82;66.64;101120.83;1718762;83;21418;-74
2022/02/13 10:25:43;;;;;;;7.62;3.85;;;;;;;2.86;66.36;101122.05;1719071;83;20980;-74
2022/02/13 10:28:23;;;;;;;7.03;4.22;;;;;;;2.88;65.97;101117.73;1717943;83;21092;-74
2022/02/13 10:30:55;;;;;;;6.85;4.37;;;;;;;2.85;65.81;101113.55;1718449;83;20921;-74
2022/02/13 10:33:23;;;;;;;8.05;4.10;;;;;;;2.87;65.37;101116.89;1717480;83;20984;-75
2022/02/13 10:36:12;;;;;;;8.38;3.98;;;;;;;2.93;64.97;101112.43;1718839;83;21012;-76
2022/02/13 10:38:42;;;;;;;9.18;3.65;;;;;;;2.95;64.44;101108.92;1694202;83;21024;-74
2022/02/13 10:41:19;;;;;;;6.67;3.37;;;;;;;2.99;64.93;101101.97;1718589;83;22463;-76
2022/02/13 10:44:05;;;;;;;8.38;3.90;;;;;;;3.07;64.36;101102.72;1718634;83;21397;-75
2022/02/13 10:46:36;;;;;;;6.33;3.65;;;;;;;3.12;64.13;101098.22;1719039;83;21476;-75
2022/02/13 10:49:06;;;;;;;6.72;2.80;;;;;;;3.14;63.21;101093.38;1717744;83;21114;-75
2022/02/13 10:51:33;;;;;;;6.45;3.90;;;;;;;3.18;63.49;101090.19;1718641;83;20976;-75
2022/02/13 10:54:05;;;;;;;5.58;3.17;;;;;;;3.22;63.76;101081.34;1718292;83;21333;-74
2022/02/13 10:56:29;;;;;;;6.40;3.75;;;;;;;3.33;63.66;101085.66;1693415;83;20952;-75
2022/02/13 10:58:59;;;;;;;4.50;3.17;;;;;;;3.41;62.94;101079.91;1718458;83;20942;-75
2022/02/13 11:01:27;;;;;;;5.22;3.47;;;;;;;3.43;62.24;101071.49;1718679;83;21426;-76
2022/02/13 11:04:03;;;;;;;6.20;3.77;;;;;;;3.48;62.42;101068.89;1718684;83;20961;-73
2022/02/13 11:06:40;;;;;;;5.33;3.47;;;;;;;3.55;61.90;101072.88;1718412;83;20960;-75
2022/02/13 11:09:21;;;;;;;5.12;3.22;;;;;;;3.49;61.58;101071.38;1718946;83;21442;-75
2022/02/13 11:11:51;;;;;;;7.62;3.83;;;;;;;3.38;61.76;101059.91;1718842;83;20897;-75
2022/02/13 11:14:41;;;;;;;7.25;3.77;;;;;;;3.29;61.87;101052.08;1715758;83;21454;-74
2022/02/13 11:17:09;;;;;;;8.88;3.90;;;;;;;3.23;61.66;101051.66;1715135;83;20882;-74
2022/02/13 11:19:39;;;;;;;8.78;4.30;;;;;;;3.24;61.72;101045.69;1715698;83;21292;-75
2022/02/13 11:22:10;;;;;;;5.80;3.27;;;;;;;3.24;61.66;101042.95;1689406;83;21000;-75
2022/02/13 11:24:37;;;;;;;6.37;3.33;;;;;;;3.23;61.68;101047.56;1715781;83;21002;-75
2022/02/13 11:27:05;;;;;;;7.28;3.60;;;;;;;3.22;61.34;101039.63;1715384;83;20940;-74
2022/02/13 11:29:56;;;;;;;5.12;3.17;;;;;;;3.12;61.48;101036.92;1715341;83;20988;-75
2022/02/13 11:32:45;;;;;;;10.85;4.17;;;;;;;3.00;61.38;101035.53;1648850;85;20989;-74